sensor_id;sensor_type;location;lat;lon;timestamp;P1;durP1;ratioP1;P2;durP2;ratioP2
19161;SDS011;9713;48.140;11.530;2023-02-19T00:00:40;2.20;;;1.67;;
19161;SDS011;9713;48.140;11.530;2023-02-19T00:04:23;6.60;;;1.63;;
19161;SDS011;9713;48.140;11.530;2023-02-19T00:08:07;2.87;;;2.10;;
19161;SDS011;9713;48.140;11.530;2023-02-19T00:11:49;3.20;;;1.60;;
19161;SDS011;9713;48.140;11.530;2023-02-19T00:15:32;2.10;;;1.40;;
19161;SDS011;9713;48.140;11.530;2023-02-19T00:19:16;3.30;;;1.70;;
19161;SDS011;9713;48.140;11.530;2023-02-19T00:22:59;2.50;;;1.50;;
19161;SDS011;9713;48.140;11.530;2023-02-19T00:26:44;2.63;;;1.60;;
19161;SDS011;9713;48.140;11.530;2023-02-19T00:30:27;3.17;;;1.43;;
19161;SDS011;9713;48.140;11.530;2023-02-19T00:34:10;3.07;;;1.50;;
19161;SDS011;9713;48.140;11.530;2023-02-19T00:37:54;2.33;;;1.60;;
19161;SDS011;9713;48.140;11.530;2023-02-19T00:41:36;2.73;;;1.57;;
19161;SDS011;9713;48.140;11.530;2023-02-19T00:45:20;2.53;;;1.67;;
19161;SDS011;9713;48.140;11.530;2023-02-19T00:49:04;3.73;;;1.63;;
19161;SDS011;9713;48.140;11.530;2023-02-19T00:52:47;1.63;;;1.27;;
19161;SDS011;9713;48.140;11.530;2023-02-19T00:56:30;2.10;;;1.50;;
19161;SDS011;9713;48.140;11.530;2023-02-19T01:00:12;5.23;;;1.90;;
19161;SDS011;9713;48.140;11.530;2023-02-19T01:03:58;5.07;;;1.90;;
19161;SDS011;9713;48.140;11.530;2023-02-19T01:07:41;2.67;;;1.40;;
19161;SDS011;9713;48.140;11.530;2023-02-19T01:11:23;2.03;;;1.50;;
19161;SDS011;9713;48.140;11.530;2023-02-19T01:15:07;2.13;;;1.73;;
19161;SDS011;9713;48.140;11.530;2023-02-19T01:18:50;2.57;;;1.70;;
19161;SDS011;9713;48.140;11.530;2023-02-19T01:22:34;1.90;;;1.40;;
19161;SDS011;9713;48.140;11.530;2023-02-19T01:26:18;2.30;;;1.40;;
19161;SDS011;9713;48.140;11.530;2023-02-19T01:30:02;2.50;;;1.40;;
19161;SDS011;9713;48.140;11.530;2023-02-19T01:33:45;2.03;;;1.30;;
19161;SDS011;9713;48.140;11.530;2023-02-19T01:37:30;1.77;;;1.30;;
19161;SDS011;9713;48.140;11.530;2023-02-19T01:41:15;4.00;;;1.70;;
19161;SDS011;9713;48.140;11.530;2023-02-19T01:49:04;2.47;;;1.53;;
19161;SDS011;9713;48.140;11.530;2023-02-19T01:52:49;2.17;;;1.50;;
19161;SDS011;9713;48.140;11.530;2023-02-19T01:56:33;2.20;;;1.60;;
19161;SDS011;9713;48.140;11.530;2023-02-19T02:00:18;1.80;;;1.50;;
19161;SDS011;9713;48.140;11.530;2023-02-19T02:04:01;2.37;;;1.70;;
19161;SDS011;9713;48.140;11.530;2023-02-19T02:07:45;4.07;;;1.67;;
19161;SDS011;9713;48.140;11.530;2023-02-19T02:11:47;2.33;;;1.50;;
19161;SDS011;9713;48.140;11.530;2023-02-19T02:15:35;2.07;;;1.80;;
19161;SDS011;9713;48.140;11.530;2023-02-19T02:19:48;4.10;;;1.50;;
19161;SDS011;9713;48.140;11.530;2023-02-19T02:23:45;2.77;;;1.90;;
19161;SDS011;9713;48.140;11.530;2023-02-19T02:31:39;2.67;;;1.80;;
19161;SDS011;9713;48.140;11.530;2023-02-19T02:35:25;2.73;;;1.80;;
19161;SDS011;9713;48.140;11.530;2023-02-19T02:39:10;2.90;;;2.10;;
19161;SDS011;9713;48.140;11.530;2023-02-19T02:42:55;2.60;;;1.80;;
19161;SDS011;9713;48.140;11.530;2023-02-19T02:46:40;3.73;;;1.70;;
19161;SDS011;9713;48.140;11.530;2023-02-19T02:50:24;3.07;;;2.27;;
19161;SDS011;9713;48.140;11.530;2023-02-19T02:54:09;3.10;;;2.20;;
19161;SDS011;9713;48.140;11.530;2023-02-19T02:58:11;4.63;;;2.00;;
19161;SDS011;9713;48.140;11.530;2023-02-19T03:01:58;3.73;;;2.03;;
19161;SDS011;9713;48.140;11.530;2023-02-19T03:05:56;2.93;;;2.07;;
19161;SDS011;9713;48.140;11.530;2023-02-19T03:09:42;3.17;;;2.00;;
19161;SDS011;9713;48.140;11.530;2023-02-19T03:13:26;3.40;;;2.37;;
19161;SDS011;9713;48.140;11.530;2023-02-19T03:17:30;2.87;;;2.00;;
19161;SDS011;9713;48.140;11.530;2023-02-19T03:21:33;4.03;;;2.40;;
19161;SDS011;9713;48.140;11.530;2023-02-19T03:25:19;2.73;;;2.00;;
19161;SDS011;9713;48.140;11.530;2023-02-19T03:29:21;3.43;;;2.13;;
19161;SDS011;9713;48.140;11.530;2023-02-19T03:33:08;3.90;;;2.50;;
19161;SDS011;9713;48.140;11.530;2023-02-19T03:37:00;3.60;;;2.63;;
19161;SDS011;9713;48.140;11.530;2023-02-19T03:40:48;3.03;;;2.30;;
19161;SDS011;9713;48.140;11.530;2023-02-19T03:44:36;3.37;;;2.57;;
19161;SDS011;9713;48.140;11.530;2023-02-19T03:48:26;5.00;;;2.50;;
19161;SDS011;9713;48.140;11.530;2023-02-19T03:52:12;3.07;;;2.30;;
19161;SDS011;9713;48.140;11.530;2023-02-19T03:56:01;4.13;;;2.40;;
19161;SDS011;9713;48.140;11.530;2023-02-19T03:59:47;4.30;;;2.53;;
19161;SDS011;9713;48.140;11.530;2023-02-19T04:03:36;2.47;;;2.00;;
19161;SDS011;9713;48.140;11.530;2023-02-19T04:07:21;3.90;;;2.37;;
19161;SDS011;9713;48.140;11.530;2023-02-19T04:11:05;4.43;;;2.17;;
19161;SDS011;9713;48.140;11.530;2023-02-19T04:14:50;3.53;;;2.13;;
19161;SDS011;9713;48.140;11.530;2023-02-19T04:18:36;3.07;;;2.20;;
19161;SDS011;9713;48.140;11.530;2023-02-19T04:22:20;3.70;;;2.50;;
19161;SDS011;9713;48.140;11.530;2023-02-19T04:26:03;5.07;;;2.50;;
19161;SDS011;9713;48.140;11.530;2023-02-19T04:29:48;2.50;;;2.03;;
19161;SDS011;9713;48.140;11.530;2023-02-19T04:33:30;3.33;;;2.30;;
19161;SDS011;9713;48.140;11.530;2023-02-19T04:37:14;3.47;;;2.57;;
19161;SDS011;9713;48.140;11.530;2023-02-19T04:40:57;3.40;;;2.20;;
19161;SDS011;9713;48.140;11.530;2023-02-19T04:44:40;3.43;;;2.37;;
19161;SDS011;9713;48.140;11.530;2023-02-19T04:48:23;3.57;;;2.40;;
19161;SDS011;9713;48.140;11.530;2023-02-19T04:52:05;4.30;;;2.40;;
19161;SDS011;9713;48.140;11.530;2023-02-19T04:55:49;2.80;;;1.87;;
19161;SDS011;9713;48.140;11.530;2023-02-19T04:59:33;4.03;;;2.10;;
19161;SDS011;9713;48.140;11.530;2023-02-19T05:03:16;3.23;;;2.10;;
19161;SDS011;9713;48.140;11.530;2023-02-19T05:06:58;3.30;;;2.10;;
19161;SDS011;9713;48.140;11.530;2023-02-19T05:10:41;3.63;;;2.13;;
19161;SDS011;9713;48.140;11.530;2023-02-19T05:14:25;4.40;;;2.30;;
19161;SDS011;9713;48.140;11.530;2023-02-19T05:18:08;2.60;;;2.00;;
19161;SDS011;9713;48.140;11.530;2023-02-19T05:21:51;3.27;;;2.33;;
19161;SDS011;9713;48.140;11.530;2023-02-19T05:25:34;3.70;;;2.23;;
19161;SDS011;9713;48.140;11.530;2023-02-19T05:29:16;3.17;;;2.00;;
19161;SDS011;9713;48.140;11.530;2023-02-19T05:33:00;3.23;;;2.10;;
19161;SDS011;9713;48.140;11.530;2023-02-19T05:36:43;3.27;;;2.00;;
19161;SDS011;9713;48.140;11.530;2023-02-19T05:40:26;2.10;;;1.83;;
19161;SDS011;9713;48.140;11.530;2023-02-19T05:44:08;3.20;;;2.00;;
19161;SDS011;9713;48.140;11.530;2023-02-19T05:47:51;2.70;;;1.90;;
19161;SDS011;9713;48.140;11.530;2023-02-19T05:51:35;4.40;;;1.87;;
19161;SDS011;9713;48.140;11.530;2023-02-19T05:55:18;2.93;;;1.90;;
19161;SDS011;9713;48.140;11.530;2023-02-19T05:59:02;2.57;;;1.70;;
19161;SDS011;9713;48.140;11.530;2023-02-19T06:02:48;2.27;;;1.60;;
19161;SDS011;9713;48.140;11.530;2023-02-19T06:06:30;2.93;;;2.03;;
19161;SDS011;9713;48.140;11.530;2023-02-19T06:13:59;3.03;;;2.00;;
19161;SDS011;9713;48.140;11.530;2023-02-19T06:17:41;3.60;;;1.80;;
19161;SDS011;9713;48.140;11.530;2023-02-19T06:21:24;2.63;;;1.60;;
19161;SDS011;9713;48.140;11.530;2023-02-19T06:25:07;2.93;;;1.87;;
19161;SDS011;9713;48.140;11.530;2023-02-19T06:28:54;2.20;;;1.77;;
19161;SDS011;9713;48.140;11.530;2023-02-19T06:32:36;2.80;;;1.73;;
19161;SDS011;9713;48.140;11.530;2023-02-19T06:36:19;2.70;;;1.80;;
19161;SDS011;9713;48.140;11.530;2023-02-19T06:40:03;4.10;;;1.90;;
19161;SDS011;9713;48.140;11.530;2023-02-19T06:43:46;3.73;;;2.20;;
19161;SDS011;9713;48.140;11.530;2023-02-19T06:47:31;2.93;;;1.67;;
19161;SDS011;9713;48.140;11.530;2023-02-19T06:51:15;2.60;;;1.90;;
19161;SDS011;9713;48.140;11.530;2023-02-19T06:54:59;2.43;;;1.90;;
19161;SDS011;9713;48.140;11.530;2023-02-19T06:58:42;3.40;;;2.07;;
19161;SDS011;9713;48.140;11.530;2023-02-19T07:02:25;2.33;;;2.00;;
19161;SDS011;9713;48.140;11.530;2023-02-19T07:06:09;3.00;;;2.40;;
19161;SDS011;9713;48.140;11.530;2023-02-19T07:09:51;2.80;;;2.00;;
19161;SDS011;9713;48.140;11.530;2023-02-19T07:13:34;2.87;;;2.20;;
19161;SDS011;9713;48.140;11.530;2023-02-19T07:17:17;2.70;;;2.00;;
19161;SDS011;9713;48.140;11.530;2023-02-19T07:21:01;5.73;;;2.40;;
19161;SDS011;9713;48.140;11.530;2023-02-19T07:24:45;2.57;;;2.07;;
19161;SDS011;9713;48.140;11.530;2023-02-19T07:28:28;2.70;;;2.10;;
19161;SDS011;9713;48.140;11.530;2023-02-19T07:32:11;2.80;;;2.03;;
19161;SDS011;9713;48.140;11.530;2023-02-19T07:35:53;4.00;;;2.20;;
19161;SDS011;9713;48.140;11.530;2023-02-19T07:39:36;3.80;;;2.20;;
19161;SDS011;9713;48.140;11.530;2023-02-19T07:43:20;3.23;;;2.30;;
19161;SDS011;9713;48.140;11.530;2023-02-19T07:47:03;5.53;;;2.17;;
19161;SDS011;9713;48.140;11.530;2023-02-19T07:50:49;3.20;;;2.10;;
19161;SDS011;9713;48.140;11.530;2023-02-19T07:54:33;2.87;;;2.13;;
19161;SDS011;9713;48.140;11.530;2023-02-19T07:58:15;3.47;;;2.30;;
19161;SDS011;9713;48.140;11.530;2023-02-19T08:01:59;3.03;;;2.07;;
19161;SDS011;9713;48.140;11.530;2023-02-19T08:05:59;3.17;;;2.40;;
19161;SDS011;9713;48.140;11.530;2023-02-19T08:09:42;5.67;;;3.10;;
19161;SDS011;9713;48.140;11.530;2023-02-19T08:13:26;3.00;;;2.20;;
19161;SDS011;9713;48.140;11.530;2023-02-19T08:17:15;2.70;;;2.00;;
19161;SDS011;9713;48.140;11.530;2023-02-19T08:20:58;3.03;;;2.10;;
19161;SDS011;9713;48.140;11.530;2023-02-19T08:24:41;3.00;;;2.20;;
19161;SDS011;9713;48.140;11.530;2023-02-19T08:28:25;2.13;;;1.70;;
19161;SDS011;9713;48.140;11.530;2023-02-19T08:32:08;3.60;;;2.07;;
19161;SDS011;9713;48.140;11.530;2023-02-19T08:35:52;2.40;;;1.80;;
19161;SDS011;9713;48.140;11.530;2023-02-19T08:39:35;2.27;;;1.87;;
19161;SDS011;9713;48.140;11.530;2023-02-19T08:43:18;2.60;;;2.00;;
19161;SDS011;9713;48.140;11.530;2023-02-19T08:47:00;4.13;;;1.77;;
19161;SDS011;9713;48.140;11.530;2023-02-19T08:50:46;2.50;;;1.80;;
19161;SDS011;9713;48.140;11.530;2023-02-19T08:54:36;2.27;;;1.90;;
19161;SDS011;9713;48.140;11.530;2023-02-19T08:58:19;2.23;;;1.70;;
19161;SDS011;9713;48.140;11.530;2023-02-19T09:02:01;3.17;;;2.10;;
19161;SDS011;9713;48.140;11.530;2023-02-19T09:05:44;3.83;;;2.10;;
19161;SDS011;9713;48.140;11.530;2023-02-19T09:09:29;3.93;;;2.50;;
19161;SDS011;9713;48.140;11.530;2023-02-19T09:13:12;7.30;;;2.87;;
19161;SDS011;9713;48.140;11.530;2023-02-19T09:16:56;3.87;;;2.43;;
19161;SDS011;9713;48.140;11.530;2023-02-19T09:20:39;2.93;;;2.03;;
19161;SDS011;9713;48.140;11.530;2023-02-19T09:24:22;1.87;;;1.70;;
19161;SDS011;9713;48.140;11.530;2023-02-19T09:28:08;2.03;;;1.70;;
19161;SDS011;9713;48.140;11.530;2023-02-19T09:31:54;2.90;;;1.90;;
19161;SDS011;9713;48.140;11.530;2023-02-19T09:35:38;2.77;;;1.90;;
19161;SDS011;9713;48.140;11.530;2023-02-19T09:39:22;1.90;;;1.40;;
19161;SDS011;9713;48.140;11.530;2023-02-19T09:43:05;1.73;;;1.60;;
19161;SDS011;9713;48.140;11.530;2023-02-19T09:46:50;2.07;;;1.50;;
19161;SDS011;9713;48.140;11.530;2023-02-19T09:50:36;2.13;;;0.73;;
19161;SDS011;9713;48.140;11.530;2023-02-19T09:54:22;0.50;;;0.40;;
19161;SDS011;9713;48.140;11.530;2023-02-19T09:58:08;0.60;;;0.50;;
19161;SDS011;9713;48.140;11.530;2023-02-19T10:02:02;0.97;;;0.67;;
19161;SDS011;9713;48.140;11.530;2023-02-19T10:05:47;1.00;;;0.50;;
19161;SDS011;9713;48.140;11.530;2023-02-19T10:09:30;0.83;;;0.60;;
19161;SDS011;9713;48.140;11.530;2023-02-19T10:13:16;1.00;;;0.70;;
19161;SDS011;9713;48.140;11.530;2023-02-19T10:17:02;0.80;;;0.50;;
19161;SDS011;9713;48.140;11.530;2023-02-19T10:20:46;0.57;;;0.50;;
19161;SDS011;9713;48.140;11.530;2023-02-19T10:24:29;0.57;;;0.40;;
19161;SDS011;9713;48.140;11.530;2023-02-19T10:28:16;1.20;;;0.50;;
19161;SDS011;9713;48.140;11.530;2023-02-19T10:32:15;3.17;;;0.40;;
19161;SDS011;9713;48.140;11.530;2023-02-19T10:36:05;3.07;;;1.37;;
19161;SDS011;9713;48.140;11.530;2023-02-19T10:39:54;2.77;;;0.97;;
19161;SDS011;9713;48.140;11.530;2023-02-19T10:43:37;0.53;;;0.40;;
19161;SDS011;9713;48.140;11.530;2023-02-19T10:47:24;1.43;;;0.50;;
19161;SDS011;9713;48.140;11.530;2023-02-19T10:51:08;1.23;;;0.50;;
19161;SDS011;9713;48.140;11.530;2023-02-19T10:54:54;1.00;;;0.60;;
19161;SDS011;9713;48.140;11.530;2023-02-19T10:58:38;1.10;;;0.50;;
19161;SDS011;9713;48.140;11.530;2023-02-19T11:02:24;2.50;;;0.50;;
19161;SDS011;9713;48.140;11.530;2023-02-19T11:06:08;2.23;;;0.50;;
19161;SDS011;9713;48.140;11.530;2023-02-19T11:09:52;1.47;;;0.60;;
19161;SDS011;9713;48.140;11.530;2023-02-19T11:13:34;3.50;;;0.50;;
19161;SDS011;9713;48.140;11.530;2023-02-19T11:17:20;2.70;;;0.40;;
19161;SDS011;9713;48.140;11.530;2023-02-19T11:21:06;2.20;;;0.60;;
19161;SDS011;9713;48.140;11.530;2023-02-19T11:24:49;1.57;;;1.00;;
19161;SDS011;9713;48.140;11.530;2023-02-19T11:28:38;1.03;;;0.63;;
19161;SDS011;9713;48.140;11.530;2023-02-19T11:32:22;1.13;;;0.67;;
19161;SDS011;9713;48.140;11.530;2023-02-19T11:40:11;0.77;;;0.47;;
19161;SDS011;9713;48.140;11.530;2023-02-19T11:44:00;0.70;;;0.50;;
19161;SDS011;9713;48.140;11.530;2023-02-19T11:47:53;2.00;;;0.80;;
19161;SDS011;9713;48.140;11.530;2023-02-19T11:52:06;1.57;;;0.50;;
19161;SDS011;9713;48.140;11.530;2023-02-19T11:56:05;2.60;;;0.60;;
19161;SDS011;9713;48.140;11.530;2023-02-19T11:59:54;0.50;;;0.43;;
19161;SDS011;9713;48.140;11.530;2023-02-19T12:03:43;0.30;;;0.30;;
19161;SDS011;9713;48.140;11.530;2023-02-19T12:12:01;2.67;;;0.67;;
19161;SDS011;9713;48.140;11.530;2023-02-19T12:16:10;0.67;;;0.60;;
19161;SDS011;9713;48.140;11.530;2023-02-19T12:20:02;2.40;;;0.73;;
19161;SDS011;9713;48.140;11.530;2023-02-19T12:28:03;0.80;;;0.50;;
19161;SDS011;9713;48.140;11.530;2023-02-19T12:32:00;0.67;;;0.50;;
19161;SDS011;9713;48.140;11.530;2023-02-19T12:36:05;5.43;;;0.93;;
19161;SDS011;9713;48.140;11.530;2023-02-19T12:39:56;1.17;;;0.70;;
19161;SDS011;9713;48.140;11.530;2023-02-19T12:43:52;0.70;;;0.60;;
19161;SDS011;9713;48.140;11.530;2023-02-19T12:47:37;2.30;;;0.77;;
19161;SDS011;9713;48.140;11.530;2023-02-19T12:51:22;3.30;;;0.70;;
19161;SDS011;9713;48.140;11.530;2023-02-19T12:55:11;1.90;;;0.60;;
19161;SDS011;9713;48.140;11.530;2023-02-19T12:59:02;1.27;;;0.60;;
19161;SDS011;9713;48.140;11.530;2023-02-19T13:02:47;1.63;;;0.80;;
19161;SDS011;9713;48.140;11.530;2023-02-19T13:06:32;0.80;;;0.60;;
19161;SDS011;9713;48.140;11.530;2023-02-19T13:10:23;2.60;;;0.73;;
19161;SDS011;9713;48.140;11.530;2023-02-19T13:14:13;1.03;;;0.70;;
19161;SDS011;9713;48.140;11.530;2023-02-19T13:17:59;1.10;;;0.60;;
19161;SDS011;9713;48.140;11.530;2023-02-19T13:21:42;0.87;;;0.60;;
19161;SDS011;9713;48.140;11.530;2023-02-19T13:25:50;2.97;;;0.60;;
19161;SDS011;9713;48.140;11.530;2023-02-19T13:29:45;1.93;;;0.53;;
19161;SDS011;9713;48.140;11.530;2023-02-19T13:33:39;1.23;;;0.60;;
19161;SDS011;9713;48.140;11.530;2023-02-19T13:37:30;0.90;;;0.50;;
19161;SDS011;9713;48.140;11.530;2023-02-19T13:41:26;4.50;;;0.70;;
19161;SDS011;9713;48.140;11.530;2023-02-19T13:45:19;1.43;;;0.70;;
19161;SDS011;9713;48.140;11.530;2023-02-19T13:49:36;5.13;;;0.70;;
19161;SDS011;9713;48.140;11.530;2023-02-19T13:57:33;0.77;;;0.50;;
19161;SDS011;9713;48.140;11.530;2023-02-19T14:01:16;1.17;;;0.50;;
19161;SDS011;9713;48.140;11.530;2023-02-19T14:04:59;1.53;;;0.60;;
19161;SDS011;9713;48.140;11.530;2023-02-19T14:12:34;1.80;;;0.53;;
19161;SDS011;9713;48.140;11.530;2023-02-19T14:16:27;2.20;;;0.63;;
19161;SDS011;9713;48.140;11.530;2023-02-19T14:24:22;1.30;;;0.80;;
19161;SDS011;9713;48.140;11.530;2023-02-19T14:28:12;1.77;;;0.70;;
19161;SDS011;9713;48.140;11.530;2023-02-19T14:31:58;2.00;;;0.90;;
19161;SDS011;9713;48.140;11.530;2023-02-19T14:35:43;1.83;;;1.10;;
19161;SDS011;9713;48.140;11.530;2023-02-19T14:39:28;1.77;;;0.70;;
19161;SDS011;9713;48.140;11.530;2023-02-19T14:43:12;1.90;;;0.87;;
19161;SDS011;9713;48.140;11.530;2023-02-19T14:46:57;1.07;;;0.70;;
19161;SDS011;9713;48.140;11.530;2023-02-19T14:50:42;2.23;;;0.90;;
19161;SDS011;9713;48.140;11.530;2023-02-19T14:54:33;1.10;;;0.70;;
19161;SDS011;9713;48.140;11.530;2023-02-19T14:58:21;9.70;;;1.00;;
19161;SDS011;9713;48.140;11.530;2023-02-19T15:02:12;1.37;;;0.97;;
19161;SDS011;9713;48.140;11.530;2023-02-19T15:05:57;1.63;;;0.70;;
19161;SDS011;9713;48.140;11.530;2023-02-19T15:09:45;1.80;;;0.67;;
19161;SDS011;9713;48.140;11.530;2023-02-19T15:13:31;3.00;;;0.80;;
19161;SDS011;9713;48.140;11.530;2023-02-19T15:17:14;0.93;;;0.70;;
19161;SDS011;9713;48.140;11.530;2023-02-19T15:20:59;2.43;;;1.20;;
19161;SDS011;9713;48.140;11.530;2023-02-19T15:24:44;2.77;;;0.80;;
19161;SDS011;9713;48.140;11.530;2023-02-19T15:28:30;2.20;;;0.83;;
19161;SDS011;9713;48.140;11.530;2023-02-19T15:32:15;2.47;;;0.80;;
19161;SDS011;9713;48.140;11.530;2023-02-19T15:36:03;1.80;;;0.87;;
19161;SDS011;9713;48.140;11.530;2023-02-19T15:39:47;4.57;;;1.10;;
19161;SDS011;9713;48.140;11.530;2023-02-19T15:43:36;2.83;;;0.90;;
19161;SDS011;9713;48.140;11.530;2023-02-19T15:47:23;1.23;;;0.70;;
19161;SDS011;9713;48.140;11.530;2023-02-19T15:51:11;1.23;;;0.60;;
19161;SDS011;9713;48.140;11.530;2023-02-19T15:54:57;1.93;;;0.80;;
19161;SDS011;9713;48.140;11.530;2023-02-19T15:58:49;1.83;;;0.67;;
19161;SDS011;9713;48.140;11.530;2023-02-19T16:02:33;6.83;;;0.70;;
19161;SDS011;9713;48.140;11.530;2023-02-19T16:06:17;3.07;;;0.70;;
19161;SDS011;9713;48.140;11.530;2023-02-19T16:10:03;1.23;;;0.73;;
19161;SDS011;9713;48.140;11.530;2023-02-19T16:13:49;3.03;;;0.80;;
19161;SDS011;9713;48.140;11.530;2023-02-19T16:17:32;0.87;;;0.70;;
19161;SDS011;9713;48.140;11.530;2023-02-19T16:21:16;2.20;;;0.90;;
19161;SDS011;9713;48.140;11.530;2023-02-19T16:25:02;1.10;;;0.80;;
19161;SDS011;9713;48.140;11.530;2023-02-19T16:28:50;1.40;;;0.90;;
19161;SDS011;9713;48.140;11.530;2023-02-19T16:32:33;1.93;;;1.07;;
19161;SDS011;9713;48.140;11.530;2023-02-19T16:36:25;2.03;;;1.17;;
19161;SDS011;9713;48.140;11.530;2023-02-19T16:44:43;1.90;;;0.80;;
19161;SDS011;9713;48.140;11.530;2023-02-19T16:48:26;1.93;;;1.10;;
19161;SDS011;9713;48.140;11.530;2023-02-19T16:52:11;1.40;;;0.80;;
19161;SDS011;9713;48.140;11.530;2023-02-19T16:55:55;2.00;;;1.00;;
19161;SDS011;9713;48.140;11.530;2023-02-19T16:59:38;1.53;;;1.03;;
19161;SDS011;9713;48.140;11.530;2023-02-19T17:03:22;2.13;;;0.97;;
19161;SDS011;9713;48.140;11.530;2023-02-19T17:07:07;1.30;;;0.90;;
19161;SDS011;9713;48.140;11.530;2023-02-19T17:10:50;2.67;;;0.97;;
19161;SDS011;9713;48.140;11.530;2023-02-19T17:14:36;3.13;;;0.97;;
19161;SDS011;9713;48.140;11.530;2023-02-19T17:18:18;2.27;;;1.10;;
19161;SDS011;9713;48.140;11.530;2023-02-19T17:22:05;2.60;;;0.90;;
19161;SDS011;9713;48.140;11.530;2023-02-19T17:25:48;2.20;;;1.00;;
19161;SDS011;9713;48.140;11.530;2023-02-19T17:29:31;1.80;;;0.70;;
19161;SDS011;9713;48.140;11.530;2023-02-19T17:33:15;1.80;;;0.80;;
19161;SDS011;9713;48.140;11.530;2023-02-19T17:36:59;3.33;;;0.90;;
19161;SDS011;9713;48.140;11.530;2023-02-19T17:40:42;1.47;;;0.97;;
19161;SDS011;9713;48.140;11.530;2023-02-19T17:44:25;1.97;;;1.00;;
19161;SDS011;9713;48.140;11.530;2023-02-19T17:48:10;1.70;;;0.80;;
19161;SDS011;9713;48.140;11.530;2023-02-19T17:51:54;1.87;;;0.80;;
19161;SDS011;9713;48.140;11.530;2023-02-19T17:55:38;2.17;;;1.00;;
19161;SDS011;9713;48.140;11.530;2023-02-19T17:59:21;2.77;;;1.20;;
19161;SDS011;9713;48.140;11.530;2023-02-19T18:03:04;1.30;;;1.10;;
19161;SDS011;9713;48.140;11.530;2023-02-19T18:06:48;1.87;;;1.20;;
19161;SDS011;9713;48.140;11.530;2023-02-19T18:10:30;3.07;;;1.17;;
19161;SDS011;9713;48.140;11.530;2023-02-19T18:14:15;2.03;;;1.40;;
19161;SDS011;9713;48.140;11.530;2023-02-19T18:17:58;19.57;;;5.10;;
19161;SDS011;9713;48.140;11.530;2023-02-19T18:21:41;5.33;;;1.20;;
19161;SDS011;9713;48.140;11.530;2023-02-19T18:25:23;3.50;;;1.30;;
19161;SDS011;9713;48.140;11.530;2023-02-19T18:29:06;3.17;;;1.30;;
19161;SDS011;9713;48.140;11.530;2023-02-19T18:32:52;3.50;;;1.30;;
19161;SDS011;9713;48.140;11.530;2023-02-19T18:36:35;2.53;;;1.23;;
19161;SDS011;9713;48.140;11.530;2023-02-19T18:40:19;3.37;;;1.40;;
19161;SDS011;9713;48.140;11.530;2023-02-19T18:44:03;1.90;;;1.20;;
19161;SDS011;9713;48.140;11.530;2023-02-19T18:47:46;2.17;;;1.20;;
19161;SDS011;9713;48.140;11.530;2023-02-19T18:51:30;3.50;;;1.23;;
19161;SDS011;9713;48.140;11.530;2023-02-19T18:55:12;3.23;;;1.40;;
19161;SDS011;9713;48.140;11.530;2023-02-19T18:58:55;2.60;;;1.40;;
19161;SDS011;9713;48.140;11.530;2023-02-19T19:02:40;3.00;;;1.13;;
19161;SDS011;9713;48.140;11.530;2023-02-19T19:06:33;4.37;;;1.50;;
19161;SDS011;9713;48.140;11.530;2023-02-19T19:10:16;3.17;;;1.50;;
19161;SDS011;9713;48.140;11.530;2023-02-19T19:14:02;2.03;;;1.20;;
19161;SDS011;9713;48.140;11.530;2023-02-19T19:17:45;3.20;;;1.47;;
19161;SDS011;9713;48.140;11.530;2023-02-19T19:21:28;2.10;;;1.50;;
19161;SDS011;9713;48.140;11.530;2023-02-19T19:25:12;4.87;;;1.37;;
19161;SDS011;9713;48.140;11.530;2023-02-19T19:28:55;3.03;;;1.30;;
19161;SDS011;9713;48.140;11.530;2023-02-19T19:32:38;3.57;;;1.63;;
19161;SDS011;9713;48.140;11.530;2023-02-19T19:36:24;5.63;;;1.63;;
19161;SDS011;9713;48.140;11.530;2023-02-19T19:40:07;4.63;;;1.70;;
19161;SDS011;9713;48.140;11.530;2023-02-19T19:43:52;1.50;;;1.20;;
19161;SDS011;9713;48.140;11.530;2023-02-19T19:47:34;4.27;;;1.30;;
19161;SDS011;9713;48.140;11.530;2023-02-19T19:51:17;4.33;;;1.53;;
19161;SDS011;9713;48.140;11.530;2023-02-19T19:55:00;2.27;;;1.43;;
19161;SDS011;9713;48.140;11.530;2023-02-19T19:58:43;5.27;;;1.40;;
19161;SDS011;9713;48.140;11.530;2023-02-19T20:02:27;3.37;;;1.20;;
19161;SDS011;9713;48.140;11.530;2023-02-19T20:06:10;2.67;;;1.30;;
19161;SDS011;9713;48.140;11.530;2023-02-19T20:09:53;2.90;;;1.50;;
19161;SDS011;9713;48.140;11.530;2023-02-19T20:13:35;3.07;;;1.30;;
19161;SDS011;9713;48.140;11.530;2023-02-19T20:17:18;2.70;;;1.50;;
19161;SDS011;9713;48.140;11.530;2023-02-19T20:21:02;2.93;;;1.43;;
19161;SDS011;9713;48.140;11.530;2023-02-19T20:24:48;7.73;;;1.50;;
19161;SDS011;9713;48.140;11.530;2023-02-19T20:28:33;2.87;;;1.70;;
19161;SDS011;9713;48.140;11.530;2023-02-19T20:32:16;4.43;;;1.70;;
19161;SDS011;9713;48.140;11.530;2023-02-19T20:35:59;3.83;;;2.00;;
19161;SDS011;9713;48.140;11.530;2023-02-19T20:39:43;5.17;;;2.00;;
19161;SDS011;9713;48.140;11.530;2023-02-19T20:43:26;4.60;;;1.60;;
19161;SDS011;9713;48.140;11.530;2023-02-19T20:47:09;3.03;;;1.50;;
19161;SDS011;9713;48.140;11.530;2023-02-19T20:50:53;2.63;;;1.50;;
19161;SDS011;9713;48.140;11.530;2023-02-19T20:54:39;6.23;;;1.70;;
19161;SDS011;9713;48.140;11.530;2023-02-19T20:58:24;5.10;;;1.40;;
19161;SDS011;9713;48.140;11.530;2023-02-19T21:02:08;5.87;;;1.60;;
19161;SDS011;9713;48.140;11.530;2023-02-19T21:05:55;5.03;;;1.70;;
19161;SDS011;9713;48.140;11.530;2023-02-19T21:09:38;5.83;;;1.60;;
19161;SDS011;9713;48.140;11.530;2023-02-19T21:13:21;4.70;;;1.77;;
19161;SDS011;9713;48.140;11.530;2023-02-19T21:17:05;3.43;;;1.73;;
19161;SDS011;9713;48.140;11.530;2023-02-19T21:20:48;4.07;;;1.50;;
19161;SDS011;9713;48.140;11.530;2023-02-19T21:24:31;3.83;;;1.60;;
19161;SDS011;9713;48.140;11.530;2023-02-19T21:28:14;3.53;;;1.57;;
19161;SDS011;9713;48.140;11.530;2023-02-19T21:31:56;3.90;;;1.70;;
19161;SDS011;9713;48.140;11.530;2023-02-19T21:35:41;6.20;;;1.87;;
19161;SDS011;9713;48.140;11.530;2023-02-19T21:39:25;2.87;;;1.60;;
19161;SDS011;9713;48.140;11.530;2023-02-19T21:43:07;4.00;;;1.70;;
19161;SDS011;9713;48.140;11.530;2023-02-19T21:46:50;3.43;;;1.93;;
19161;SDS011;9713;48.140;11.530;2023-02-19T21:50:33;6.07;;;1.90;;
19161;SDS011;9713;48.140;11.530;2023-02-19T21:54:18;4.23;;;2.00;;
19161;SDS011;9713;48.140;11.530;2023-02-19T21:58:02;4.10;;;1.70;;
19161;SDS011;9713;48.140;11.530;2023-02-19T22:01:45;7.77;;;2.00;;
19161;SDS011;9713;48.140;11.530;2023-02-19T22:05:28;5.00;;;2.00;;
19161;SDS011;9713;48.140;11.530;2023-02-19T22:09:11;6.70;;;2.30;;
19161;SDS011;9713;48.140;11.530;2023-02-19T22:12:56;3.47;;;1.70;;
19161;SDS011;9713;48.140;11.530;2023-02-19T22:16:39;7.83;;;2.23;;
19161;SDS011;9713;48.140;11.530;2023-02-19T22:20:21;3.50;;;1.90;;
19161;SDS011;9713;48.140;11.530;2023-02-19T22:24:04;2.67;;;1.50;;
19161;SDS011;9713;48.140;11.530;2023-02-19T22:27:47;9.90;;;4.90;;
19161;SDS011;9713;48.140;11.530;2023-02-19T22:31:31;3.57;;;1.50;;
19161;SDS011;9713;48.140;11.530;2023-02-19T22:35:15;5.07;;;1.60;;
19161;SDS011;9713;48.140;11.530;2023-02-19T22:38:58;3.13;;;1.47;;
19161;SDS011;9713;48.140;11.530;2023-02-19T22:42:42;3.63;;;1.70;;
19161;SDS011;9713;48.140;11.530;2023-02-19T22:46:26;4.27;;;1.80;;
19161;SDS011;9713;48.140;11.530;2023-02-19T22:50:16;3.30;;;1.70;;
19161;SDS011;9713;48.140;11.530;2023-02-19T22:53:59;4.07;;;1.90;;
19161;SDS011;9713;48.140;11.530;2023-02-19T22:57:42;7.93;;;1.90;;
19161;SDS011;9713;48.140;11.530;2023-02-19T23:01:25;4.97;;;1.60;;
19161;SDS011;9713;48.140;11.530;2023-02-19T23:05:10;4.13;;;1.80;;
19161;SDS011;9713;48.140;11.530;2023-02-19T23:08:55;4.20;;;1.77;;
19161;SDS011;9713;48.140;11.530;2023-02-19T23:12:39;2.97;;;1.40;;
19161;SDS011;9713;48.140;11.530;2023-02-19T23:16:22;5.07;;;1.80;;
19161;SDS011;9713;48.140;11.530;2023-02-19T23:20:06;3.90;;;1.87;;